createdAt,value
2023-02-11T00:00:36.591Z,30.17
2023-02-11T00:03:04.952Z,31.75
2023-02-11T00:05:32.782Z,30.63
2023-02-11T00:08:01.020Z,31.63
2023-02-11T00:10:28.790Z,28.52
2023-02-11T00:12:57.843Z,30.67
2023-02-11T00:15:25.758Z,28.73
2023-02-11T00:17:53.698Z,28.55
2023-02-11T00:20:21.453Z,29.33
2023-02-11T00:22:49.688Z,29.95
2023-02-11T00:25:17.411Z,30.50
2023-02-11T00:27:45.446Z,38.83
2023-02-11T00:30:15.499Z,44.13
2023-02-11T00:32:43.397Z,37.35
2023-02-11T00:35:12.564Z,38.15
2023-02-11T00:37:40.590Z,32.30
2023-02-11T00:40:10.487Z,30.73
2023-02-11T00:42:38.937Z,30.90
2023-02-11T00:45:06.928Z,29.13
2023-02-11T00:47:36.264Z,28.50
2023-02-11T00:50:05.229Z,28.25
2023-02-11T00:52:33.021Z,26.38
2023-02-11T00:55:00.818Z,25.15
2023-02-11T00:57:28.661Z,26.05
2023-02-11T00:59:56.364Z,25.52
2023-02-11T01:02:24.100Z,24.05
2023-02-11T01:04:53.295Z,23.45
2023-02-11T01:07:21.050Z,23.65
2023-02-11T01:09:49.463Z,21.65
2023-02-11T01:12:17.202Z,22.80
2023-02-11T01:14:44.961Z,20.58
2023-02-11T01:17:12.731Z,21.67
2023-02-11T01:19:40.543Z,21.35
2023-02-11T01:22:09.647Z,19.55
2023-02-11T01:24:37.672Z,21.45
2023-02-11T01:27:08.166Z,21.48
2023-02-11T01:29:36.038Z,20.52
2023-02-11T01:32:03.886Z,21.15
2023-02-11T01:34:31.667Z,19.58
2023-02-11T01:36:59.854Z,19.23
2023-02-11T01:39:33.737Z,20.42
2023-02-11T01:42:01.902Z,20.52
2023-02-11T01:44:31.738Z,19.92
2023-02-11T01:46:59.457Z,19.63
2023-02-11T01:49:28.791Z,21.30
2023-02-11T01:51:58.803Z,19.73
2023-02-11T01:54:46.961Z,20.60
2023-02-11T01:57:23.174Z,20.27
2023-02-11T02:00:01.861Z,20.05
2023-02-11T02:02:45.000Z,18.63
2023-02-11T02:05:18.422Z,19.77
2023-02-11T02:07:49.060Z,18.40
2023-02-11T02:10:20.985Z,18.88
2023-02-11T02:12:50.224Z,19.00
2023-02-11T02:15:21.443Z,18.90
2023-02-11T02:17:55.094Z,18.92
2023-02-11T02:20:46.600Z,18.30
2023-02-11T02:23:26.633Z,17.73
2023-02-11T02:26:04.800Z,19.00
2023-02-11T02:28:43.321Z,18.13
2023-02-11T02:31:17.923Z,18.13
2023-02-11T02:33:52.916Z,18.50
2023-02-11T02:36:24.164Z,18.55
2023-02-11T02:38:53.952Z,17.98
2023-02-11T02:41:24.313Z,17.60
2023-02-11T02:43:52.466Z,16.95
2023-02-11T02:46:21.326Z,17.25
2023-02-11T02:48:52.636Z,16.58
2023-02-11T02:51:38.918Z,15.50
2023-02-11T02:54:17.352Z,14.52
2023-02-11T02:56:47.222Z,15.30
2023-02-11T02:59:23.312Z,14.27
2023-02-11T03:01:57.728Z,15.00
2023-02-11T03:04:30.564Z,13.80
2023-02-11T03:07:01.796Z,14.30
2023-02-11T03:09:33.323Z,13.32
2023-02-11T03:12:01.769Z,14.88
2023-02-11T03:14:30.490Z,13.75
2023-02-11T03:16:59.346Z,14.57
2023-02-11T03:19:30.439Z,13.13
2023-02-11T03:21:58.691Z,13.85
2023-02-11T03:24:29.382Z,13.23
2023-02-11T03:26:59.375Z,13.07
2023-02-11T03:29:32.192Z,14.00
2023-02-11T03:32:02.087Z,12.85
2023-02-11T03:34:33.619Z,12.43
2023-02-11T03:37:02.803Z,12.20
2023-02-11T03:39:31.844Z,11.07
2023-02-11T03:42:00.614Z,11.23
2023-02-11T03:44:31.536Z,12.57
2023-02-11T03:46:59.736Z,12.32
2023-02-11T03:49:28.262Z,12.27
2023-02-11T03:51:57.623Z,14.55
2023-02-11T03:54:27.651Z,13.30
2023-02-11T03:56:56.857Z,12.60
2023-02-11T03:59:24.661Z,13.18
2023-02-11T04:01:52.492Z,12.80
2023-02-11T04:04:20.473Z,12.93
2023-02-11T04:06:48.229Z,12.93
2023-02-11T04:09:17.306Z,12.82
2023-02-11T04:11:45.058Z,13.20
2023-02-11T04:14:12.768Z,12.40
2023-02-11T04:16:40.607Z,12.18
2023-02-11T04:19:08.315Z,13.30
2023-02-11T04:21:36.077Z,12.15
2023-02-11T04:24:03.841Z,12.35
2023-02-11T04:26:32.984Z,12.32
2023-02-11T04:29:00.698Z,12.80
2023-02-11T04:31:28.597Z,13.75
2023-02-11T04:33:57.233Z,14.02
2023-02-11T04:36:25.068Z,12.32
2023-02-11T04:38:52.779Z,13.43
2023-02-11T04:41:20.510Z,13.13
2023-02-11T04:43:49.715Z,12.85
2023-02-11T04:46:17.479Z,12.55
2023-02-11T04:48:45.275Z,13.20
2023-02-11T04:51:13.027Z,12.98
2023-02-11T04:53:40.923Z,13.18
2023-02-11T04:56:08.879Z,13.52
2023-02-11T04:58:36.591Z,12.95
2023-02-11T05:01:09.339Z,12.45
2023-02-11T05:03:37.561Z,12.18
2023-02-11T05:06:05.881Z,11.68
2023-02-11T05:08:33.792Z,10.85
2023-02-11T05:11:02.283Z,11.85
2023-02-11T05:13:30.723Z,12.02
2023-02-11T05:15:58.467Z,12.57
2023-02-11T05:18:27.584Z,12.25
2023-02-11T05:20:55.328Z,11.15
2023-02-11T05:23:23.056Z,11.98
2023-02-11T05:25:51.027Z,13.27
2023-02-11T05:28:19.474Z,12.85
2023-02-11T05:30:47.272Z,12.80
2023-02-11T05:33:15.017Z,12.65
2023-02-11T05:35:44.201Z,12.20
2023-02-11T05:38:12.031Z,11.57
2023-02-11T05:40:39.828Z,11.55
2023-02-11T05:43:07.613Z,11.52
2023-02-11T05:45:35.345Z,11.02
2023-02-11T05:48:03.080Z,11.18
2023-02-11T05:50:30.817Z,10.55
2023-02-11T05:52:59.901Z,9.32
2023-02-11T05:55:27.895Z,10.00
2023-02-11T05:57:55.600Z,11.68
2023-02-11T06:00:23.431Z,10.75
2023-02-11T06:02:51.327Z,14.02
2023-02-11T06:05:19.222Z,16.77
2023-02-11T06:07:47.426Z,36.53
2023-02-11T06:10:16.549Z,29.92
2023-02-11T06:12:44.872Z,25.52
2023-02-11T06:15:13.138Z,14.00
2023-02-11T06:17:40.935Z,11.63
2023-02-11T06:20:10.486Z,10.32
2023-02-11T06:22:38.296Z,10.23
2023-02-11T06:25:06.519Z,10.50
2023-02-11T06:27:35.629Z,9.75
2023-02-11T06:30:03.425Z,10.32
2023-02-11T06:32:46.695Z,10.60
2023-02-11T06:35:14.768Z,11.07
2023-02-11T06:37:43.136Z,16.25
2023-02-11T06:40:11.994Z,11.85
2023-02-11T06:42:41.726Z,8.98
2023-02-11T06:45:10.948Z,8.27
2023-02-11T06:47:38.894Z,8.25
2023-02-11T06:50:07.585Z,8.30
2023-02-11T06:52:35.501Z,9.15
2023-02-11T06:55:03.650Z,8.80
2023-02-11T06:57:31.741Z,9.07
2023-02-11T07:00:00.836Z,8.40
2023-02-11T07:02:28.678Z,8.52
2023-02-11T07:04:56.364Z,9.13
2023-02-11T07:07:24.233Z,8.73
2023-02-11T07:09:52.092Z,9.20
2023-02-11T07:12:19.880Z,8.68
2023-02-11T07:14:47.554Z,9.30
2023-02-11T07:17:16.783Z,9.00
2023-02-11T07:19:44.461Z,8.02
2023-02-11T07:22:12.276Z,8.45
2023-02-11T07:24:39.955Z,9.55
2023-02-11T07:27:07.784Z,9.60
2023-02-11T07:29:35.397Z,10.88
2023-02-11T07:32:03.213Z,9.15
2023-02-11T07:34:33.131Z,9.15
2023-02-11T07:37:00.869Z,12.10
2023-02-11T07:39:29.464Z,10.73
2023-02-11T07:41:57.598Z,8.43
2023-02-11T07:44:25.810Z,8.80
2023-02-11T07:46:55.557Z,9.02
2023-02-11T07:49:23.384Z,8.80
2023-02-11T07:51:52.467Z,9.13
2023-02-11T07:54:20.160Z,9.38
2023-02-11T07:56:47.984Z,9.45
2023-02-11T07:59:15.681Z,9.05
2023-02-11T08:01:43.483Z,8.05
2023-02-11T08:04:11.199Z,9.07
2023-02-11T08:06:41.634Z,9.48
2023-02-11T08:09:14.101Z,8.73
2023-02-11T08:11:41.735Z,9.23
2023-02-11T08:14:09.537Z,9.50
2023-02-11T08:16:38.835Z,8.82
2023-02-11T08:19:07.622Z,8.48
2023-02-11T08:21:35.328Z,8.85
2023-02-11T08:24:03.995Z,9.48
2023-02-11T08:26:34.720Z,9.57
2023-02-11T08:29:03.391Z,9.70
2023-02-11T08:31:33.275Z,9.88
2023-02-11T08:34:02.509Z,9.00
2023-02-11T08:36:31.518Z,9.40
2023-02-11T08:39:17.569Z,10.02
2023-02-11T08:41:48.866Z,10.60
2023-02-11T08:44:16.862Z,11.18
2023-02-11T08:46:44.604Z,10.27
2023-02-11T08:49:12.536Z,11.25
2023-02-11T08:51:40.286Z,11.52
2023-02-11T08:54:09.831Z,12.80
2023-02-11T08:56:37.627Z,13.93
2023-02-11T08:59:07.077Z,14.05
2023-02-11T09:01:35.297Z,14.77
2023-02-11T09:04:03.257Z,13.82
2023-02-11T09:06:30.999Z,13.85
2023-02-11T09:08:59.211Z,15.50
2023-02-11T09:11:28.171Z,12.55
2023-02-11T09:13:56.317Z,12.95
2023-02-11T09:16:26.680Z,12.77
2023-02-11T09:18:54.524Z,14.25
2023-02-11T09:21:22.237Z,12.55
2023-02-11T09:23:49.946Z,13.88
2023-02-11T09:26:18.830Z,12.48
2023-02-11T09:28:47.097Z,13.10
2023-02-11T09:31:15.605Z,12.75
2023-02-11T09:33:47.976Z,12.25
2023-02-11T09:36:16.680Z,13.23
2023-02-11T09:38:44.756Z,14.70
2023-02-11T09:41:25.348Z,14.82
2023-02-11T09:43:54.290Z,12.73
2023-02-11T09:46:22.674Z,12.57
2023-02-11T09:48:53.193Z,12.70
2023-02-11T09:51:21.757Z,13.77
2023-02-11T09:53:51.839Z,14.27
2023-02-11T09:56:19.504Z,15.18
2023-02-11T09:58:47.249Z,15.13
2023-02-11T10:01:21.661Z,14.43
2023-02-11T10:03:55.705Z,15.60
2023-02-11T10:06:30.087Z,15.77
2023-02-11T10:09:02.667Z,16.17
2023-02-11T10:11:34.122Z,16.92
2023-02-11T10:14:07.414Z,15.45
2023-02-11T10:16:49.435Z,15.70
2023-02-11T10:19:27.368Z,14.48
2023-02-11T10:22:00.874Z,14.18
2023-02-11T10:24:29.435Z,13.80
2023-02-11T10:26:57.139Z,14.63
2023-02-11T10:29:34.672Z,14.48
2023-02-11T10:32:04.179Z,16.90
2023-02-11T10:34:33.336Z,14.07
2023-02-11T10:37:01.348Z,16.52
2023-02-11T10:39:29.167Z,12.98
2023-02-11T10:41:58.667Z,11.43
2023-02-11T10:44:28.820Z,11.95
2023-02-11T10:46:57.489Z,12.45
2023-02-11T10:49:36.256Z,11.40
2023-02-11T10:52:24.534Z,12.85
2023-02-11T10:54:59.486Z,12.70
2023-02-11T10:57:28.896Z,11.35
2023-02-11T10:59:59.360Z,12.10
2023-02-11T11:02:32.002Z,10.30
2023-02-11T11:05:02.389Z,10.90
2023-02-11T11:07:31.477Z,10.48
2023-02-11T11:10:02.751Z,11.75
2023-02-11T11:12:34.782Z,10.95
2023-02-11T11:15:04.077Z,12.02
2023-02-11T11:17:31.842Z,14.13
2023-02-11T11:20:24.012Z,13.95
2023-02-11T11:22:55.037Z,13.45
2023-02-11T11:25:26.988Z,15.40
2023-02-11T11:27:56.534Z,13.98
2023-02-11T11:30:27.360Z,13.68
2023-02-11T11:32:55.209Z,15.15
2023-02-11T11:35:25.832Z,13.55
2023-02-11T11:37:58.378Z,12.85
2023-02-11T11:40:29.054Z,13.90
2023-02-11T11:43:08.281Z,13.90
2023-02-11T11:45:36.002Z,14.35
2023-02-11T11:48:07.074Z,15.88
2023-02-11T11:50:36.483Z,16.42
2023-02-11T11:53:08.393Z,16.65
2023-02-11T11:55:39.347Z,16.02
2023-02-11T11:58:11.423Z,15.20
2023-02-11T12:00:44.008Z,16.38
2023-02-11T12:03:27.285Z,16.42
2023-02-11T12:06:05.323Z,16.15
2023-02-11T12:08:39.255Z,17.17
2023-02-11T12:11:11.879Z,16.95
2023-02-11T12:13:46.478Z,17.60
2023-02-11T12:16:21.065Z,15.60
2023-02-11T12:21:22.006Z,16.55
2023-02-11T12:23:55.730Z,16.00
2023-02-11T12:26:24.723Z,15.35
2023-02-11T12:28:56.796Z,16.58
2023-02-11T12:31:28.722Z,15.38
2023-02-11T12:34:02.946Z,16.35
2023-02-11T12:36:36.807Z,17.08
2023-02-11T12:39:14.244Z,15.90
2023-02-11T12:42:07.811Z,14.77
2023-02-11T12:44:41.431Z,15.35
2023-02-11T12:47:15.121Z,15.52
2023-02-11T12:49:53.874Z,14.68
2023-02-11T12:52:32.791Z,14.82
2023-02-11T12:55:03.589Z,15.90
2023-02-11T12:57:33.062Z,14.65
2023-02-11T13:00:05.611Z,17.52
2023-02-11T13:02:37.370Z,15.48
2023-02-11T13:05:06.868Z,15.27
2023-02-11T13:07:37.584Z,17.00
2023-02-11T13:10:10.266Z,18.83
2023-02-11T13:12:55.958Z,15.40
2023-02-11T13:15:23.926Z,15.23
2023-02-11T13:17:57.732Z,15.90
2023-02-11T13:20:29.800Z,17.27
2023-02-11T13:23:00.123Z,16.27
2023-02-11T13:25:32.422Z,18.88
2023-02-11T13:28:02.428Z,16.77
2023-02-11T13:30:33.801Z,14.93
2023-02-11T13:33:06.656Z,16.92
2023-02-11T13:35:35.263Z,17.13
2023-02-11T13:38:04.500Z,16.45
2023-02-11T13:40:35.437Z,17.13
2023-02-11T13:43:05.062Z,17.45
2023-02-11T13:45:35.164Z,16.35
2023-02-11T13:48:04.549Z,17.70
2023-02-11T13:50:35.149Z,16.63
2023-02-11T13:53:04.459Z,17.13
2023-02-11T13:55:32.507Z,18.52
2023-02-11T13:58:34.099Z,20.23
2023-02-11T14:01:01.830Z,19.35
2023-02-11T14:03:48.780Z,19.73
2023-02-11T14:06:36.058Z,21.02
2023-02-11T14:09:24.946Z,18.27
2023-02-11T14:11:55.354Z,19.23
2023-02-11T14:14:25.549Z,18.10
2023-02-11T14:17:23.569Z,18.33
2023-02-11T14:19:51.524Z,20.33
2023-02-11T14:22:23.666Z,21.35
2023-02-11T14:24:53.277Z,24.30
2023-02-11T14:27:26.919Z,20.00
2023-02-11T14:30:21.808Z,21.70
2023-02-11T14:33:01.935Z,17.85
2023-02-11T14:35:32.983Z,21.48
2023-02-11T14:38:05.096Z,19.35
2023-02-11T14:40:34.092Z,18.92
2023-02-11T14:43:04.354Z,20.58
2023-02-11T14:45:32.074Z,18.52
2023-02-11T14:48:04.191Z,22.88
2023-02-11T14:50:34.730Z,19.23
2023-02-11T14:53:03.815Z,17.98
2023-02-11T14:55:33.195Z,19.50
2023-02-11T14:58:14.704Z,20.52
2023-02-11T15:00:50.058Z,22.65
2023-02-11T15:03:29.943Z,20.55
2023-02-11T15:05:59.067Z,20.63
2023-02-11T15:08:27.157Z,21.02
2023-02-11T15:10:56.767Z,19.50
2023-02-11T15:13:27.079Z,19.17
2023-02-11T15:15:56.792Z,20.50
2023-02-11T15:18:27.616Z,25.48
2023-02-11T15:20:56.749Z,24.40
2023-02-11T15:23:26.304Z,26.02
2023-02-11T15:25:56.242Z,22.48
2023-02-11T15:28:25.122Z,32.33
2023-02-11T15:31:03.984Z,26.05
2023-02-11T15:33:32.817Z,35.58
2023-02-11T15:36:02.931Z,27.45
2023-02-11T15:38:31.007Z,26.50
2023-02-11T15:41:00.758Z,31.33
2023-02-11T15:43:41.600Z,29.67
2023-02-11T15:46:09.937Z,26.17
2023-02-11T15:48:38.840Z,30.05
2023-02-11T15:51:13.422Z,30.80
2023-02-11T15:56:12.892Z,24.67
2023-02-11T15:58:41.790Z,21.00
2023-02-11T16:01:09.880Z,36.88
2023-02-11T16:03:37.913Z,58.28
2023-02-11T16:06:23.399Z,28.85
2023-02-11T16:08:58.082Z,26.27
2023-02-11T16:13:53.373Z,26.45
2023-02-11T16:16:23.166Z,25.27
2023-02-11T16:19:03.126Z,24.10
2023-02-11T16:21:35.392Z,30.08
2023-02-11T16:24:03.917Z,24.70
2023-02-11T16:26:33.265Z,27.10
2023-02-11T16:29:08.620Z,25.15
2023-02-11T16:31:37.430Z,23.27
2023-02-11T16:34:10.313Z,22.75
2023-02-11T16:36:39.383Z,23.40
2023-02-11T16:39:07.194Z,23.27
2023-02-11T16:41:34.911Z,23.23
2023-02-11T16:44:02.807Z,22.15
2023-02-11T16:46:31.865Z,24.83
2023-02-11T16:49:05.198Z,26.83
2023-02-11T16:51:32.968Z,27.02
2023-02-11T16:54:02.265Z,25.88
2023-02-11T16:56:29.964Z,27.40
2023-02-11T16:58:58.027Z,31.50
2023-02-11T17:01:25.858Z,28.52
2023-02-11T17:03:54.034Z,29.90
2023-02-11T17:06:21.937Z,29.55
2023-02-11T17:08:49.677Z,29.98
2023-02-11T17:11:19.766Z,34.95
2023-02-11T17:13:47.493Z,26.92
2023-02-11T18:11:52.517Z,28.20
2023-02-11T18:14:22.131Z,24.58
2023-02-11T18:16:51.039Z,23.45
2023-02-11T18:19:19.733Z,23.50
2023-02-11T18:21:48.868Z,24.75
2023-02-11T18:24:16.763Z,36.97
2023-02-11T18:26:44.640Z,25.73
2023-02-11T18:29:12.311Z,22.52
2023-02-11T18:31:41.418Z,19.85
2023-02-11T18:34:10.644Z,34.90
2023-02-11T18:36:39.654Z,26.15
2023-02-11T18:39:08.991Z,115.00
2023-02-11T18:41:36.979Z,81.30
2023-02-11T18:44:04.951Z,64.40
2023-02-11T18:46:32.641Z,66.95
2023-02-11T18:49:04.377Z,38.22
2023-02-11T18:51:32.560Z,27.33
2023-02-11T18:54:01.297Z,29.23
2023-02-11T18:56:29.696Z,40.40
2023-02-11T18:58:58.653Z,45.90
2023-02-11T19:01:27.530Z,33.78
2023-02-11T19:03:55.940Z,38.75
2023-02-11T19:06:26.136Z,41.38
2023-02-11T19:08:55.908Z,36.50
2023-02-11T19:11:54.746Z,42.78
2023-02-11T19:14:23.987Z,34.25
2023-02-11T19:16:52.926Z,31.48
2023-02-11T19:19:22.246Z,29.52
2023-02-11T19:21:51.523Z,30.20
2023-02-11T19:24:19.997Z,30.83
2023-02-11T19:26:48.732Z,32.03
2023-02-11T19:29:16.844Z,32.65
2023-02-11T19:31:45.321Z,52.70
2023-02-11T19:34:14.487Z,46.20
2023-02-11T19:36:42.753Z,49.05
2023-02-11T19:39:14.055Z,44.20
2023-02-11T19:41:42.180Z,42.45
2023-02-11T19:44:10.016Z,39.22
2023-02-11T19:46:41.006Z,38.67
2023-02-11T19:49:09.905Z,36.05
2023-02-11T19:51:39.287Z,34.63
2023-02-11T19:54:07.890Z,37.42
2023-02-11T19:56:37.883Z,31.92
2023-02-11T19:59:08.966Z,33.22
2023-02-11T20:01:37.280Z,28.00
2023-02-11T20:04:05.248Z,34.72
2023-02-11T20:06:33.409Z,38.65
2023-02-11T20:09:02.211Z,31.73
2023-02-11T20:11:30.831Z,28.67
2023-02-11T20:13:59.996Z,27.23
2023-02-11T20:16:44.725Z,31.27
2023-02-11T20:19:18.156Z,33.83
2023-02-11T20:21:47.847Z,32.08
2023-02-11T20:24:15.986Z,30.73
2023-02-11T20:26:45.195Z,30.58
2023-02-11T20:29:14.604Z,28.58
2023-02-11T20:31:42.899Z,30.67
2023-02-11T20:34:11.351Z,27.85
2023-02-11T20:36:40.375Z,28.77
2023-02-11T20:39:08.632Z,28.38
2023-02-11T20:41:39.205Z,29.58
2023-02-11T20:44:07.908Z,31.40
2023-02-11T20:46:38.443Z,30.80
2023-02-11T20:49:09.059Z,28.80
2023-02-11T20:51:37.458Z,30.92
2023-02-11T20:54:06.091Z,31.27
2023-02-11T20:56:34.836Z,29.52
2023-02-11T20:59:03.840Z,37.22
2023-02-11T21:01:32.785Z,36.88
2023-02-11T21:04:03.290Z,37.75
2023-02-11T21:06:32.478Z,32.78
2023-02-11T21:09:00.443Z,32.33
2023-02-11T21:11:29.051Z,32.25
2023-02-11T21:13:57.876Z,32.97
2023-02-11T21:16:26.009Z,33.03
2023-02-11T21:18:53.978Z,32.08
2023-02-11T21:21:23.091Z,31.80
2023-02-11T21:23:51.361Z,29.52
2023-02-11T21:26:19.382Z,31.60
2023-02-11T21:28:48.715Z,30.65
2023-02-11T21:31:19.523Z,31.67
2023-02-11T21:33:47.333Z,32.08
2023-02-11T21:36:15.672Z,31.45
2023-02-11T21:38:44.781Z,29.35
2023-02-11T21:41:12.848Z,33.03
2023-02-11T21:43:40.549Z,31.77
2023-02-11T21:46:08.943Z,34.03
2023-02-11T21:48:36.805Z,35.90
2023-02-11T21:51:05.771Z,34.00
2023-02-11T21:53:33.600Z,35.95
2023-02-11T21:56:09.609Z,33.28
2023-02-11T21:58:37.628Z,36.17
2023-02-11T22:01:11.942Z,42.30
2023-02-11T22:03:40.989Z,45.63
2023-02-11T22:06:09.617Z,42.13
2023-02-11T22:08:38.817Z,36.30
2023-02-11T22:11:09.828Z,34.08
2023-02-11T22:13:38.157Z,35.05
2023-02-11T22:16:07.379Z,36.30
2023-02-11T22:18:35.227Z,32.92
2023-02-11T22:21:05.109Z,32.45
2023-02-11T22:23:33.576Z,33.10
2023-02-11T22:26:04.460Z,32.63
2023-02-11T22:28:33.731Z,34.15
2023-02-11T22:31:01.820Z,34.60
2023-02-11T22:33:29.744Z,34.45
2023-02-11T22:36:01.014Z,34.55
2023-02-11T22:38:28.812Z,32.70
2023-02-11T22:40:56.612Z,32.88
2023-02-11T22:43:24.369Z,29.40
2023-02-11T22:45:56.401Z,29.13
2023-02-11T22:48:24.470Z,28.88
2023-02-11T22:50:52.321Z,30.38
2023-02-11T22:53:20.099Z,31.73
2023-02-11T22:55:47.837Z,31.73
2023-02-11T22:58:16.291Z,28.20
2023-02-11T23:00:43.985Z,30.30
2023-02-11T23:03:14.508Z,28.90
2023-02-11T23:05:43.124Z,32.75
2023-02-11T23:08:12.568Z,32.00
2023-02-11T23:10:41.050Z,35.25
2023-02-11T23:13:10.304Z,39.25
2023-02-11T23:15:40.035Z,35.60
2023-02-11T23:18:07.943Z,29.30
2023-02-11T23:20:37.345Z,28.60
2023-02-11T23:23:05.424Z,29.33
2023-02-11T23:25:33.566Z,38.15
2023-02-11T23:28:01.983Z,42.00
2023-02-11T23:30:30.088Z,35.88
2023-02-11T23:32:57.833Z,31.48
2023-02-11T23:35:25.581Z,30.85
2023-02-11T23:37:54.657Z,28.67
2023-02-11T23:40:22.507Z,32.20
2023-02-11T23:42:50.174Z,27.40
2023-02-11T23:45:17.967Z,31.67
2023-02-11T23:47:47.565Z,27.40
2023-02-11T23:50:15.406Z,29.55
2023-02-11T23:52:43.120Z,28.83
2023-02-11T23:55:12.239Z,29.00
2023-02-11T23:57:40.052Z,30.98
